San José Airport
MGSJ : now visible

Airfield :











YOU CAN JOIN US ON...

 
LOGIN :

Register | Disclaimer

   EN    FR    IT 

 









Legend :    VFR   Marginal VFR   IFR   Intensive IFR   Very Intensive IFR
Visi :
Ceiling :
>= 8 km
>= 3000ft
5 to 8 km
1000 to 3000 ft
1500m to 5 km
500 to 1000 ft
800 to 1500m
200 to 500 ft
< 800m
< 200 ft
Symbols :   Thunderstorms  Fog  Heavy snow  Heavy precipitations  Wind > 20 kt






- Airport Elevation : 29 ft


MGSJ - San José

CURRENT METAR :
  • 250000Z 00000KT 7000 SCT080 28/25 Q1011 A2985 FU

EXPIRED METARs :
  • 242300Z 23008KT 7000 FEW080 28/25 Q1010 A2983 FU

TAF MGSJ
Valid from the 24 at 12:00 until the 25 at 12:00 UTC


241100Z 2412/2512 00000KT CAVOK TX32/2420Z TN22/2412Z
BECMG 2416/2418 20008KT FEW018
PROB30
TEMPO 2421/2504 23012KT 8000 VCTSRA FEW020TCU FEW025CB
BECMG 2500/2502 00000KT FEW016
MHTG FIR / North America



MET'MAP, your aeronautical weather chart ! - Copyright ORBIFLY December 2007 - Disclaimer

ORBIFLY MET'MAP TEAM :

Programming & Development : Alexandra Zaïnal
Concept & original design : Baudouin d'Aumeries
Assistance for programming : Marc-Olivier Méhu
Technical & hardware support : Manuel Goepfert

Contact : metmap@orbifly.com




SOURCES & CREDITS :

   NOAA       Earth
Advisory